Sunday, December 16, 2018, 4:11 PM GMT
Back to Local

CYCX, Gagetown Can-Mil

Location: , , Canada Lat: 45.833
Local Time: 4:11 PM GMT (16:11 GMT) Lon: -66.433
Time Zone: GMT Elev: 167 ft

Show me the last for .
Show Decoded

2018-12-16 15:00 METAR CYCX 161500Z AUTO 00000KT 9SM CLR M01/M03 A3023 RMK SLP240 =
2018-12-16 14:00 METAR CYCX 161400Z AUTO 25002KT 9SM CLR M02/M03 A3026 RMK SLP249 =
2018-12-16 13:00 METAR CYCX 161300Z AUTO 00000KT 6SM CLR M04/M05 A3023 RMK ICG PAST HR SLP240 =
2018-12-16 12:00 METAR CYCX 161200Z AUTO 18002KT 9SM FEW088 M05/M06 A3023 RMK ICG SLP240 =
2018-12-16 11:00 METAR CYCX 161100Z AUTO 00000KT 9SM FEW083 M04/M05 A3024 RMK SLP242 =
2018-12-16 10:00 METAR CYCX 161000Z AUTO 27004KT 9SM FEW088 M03/M04 A3024 RMK SLP242 =
2018-12-16 09:00 METAR CYCX 160900Z AUTO 24006KT 9SM FEW099 M03/M03 A3024 RMK SLP244 =
2018-12-16 08:00 METAR CYCX 160800Z AUTO 20003KT 9SM FEW093 M03/M04 A3023 RMK SLP240 =
2018-12-16 07:00 METAR CYCX 160700Z AUTO 23004KT 9SM FEW078 M03/M03 A3023 RMK SLP240 =
2018-12-16 06:00 METAR CYCX 160600Z AUTO 00000KT 9SM FEW078 M03/M04 A3021 RMK SLP233 =
2018-12-16 05:00 METAR CYCX 160500Z AUTO 23005KT 9SM FEW091 M02/M03 A3022 RMK SLP237 =
2018-12-16 04:00 METAR CYCX 160400Z AUTO 24006KT 9SM FEW089 M01/M03 A3022 RMK SLP236 =
2018-12-16 03:00 METAR CYCX 160300Z AUTO 24004KT 9SM CLR M02/M03 A3020 RMK SLP229 =
2018-12-16 02:00 METAR CYCX 160200Z AUTO 24005KT 9SM CLR M01/M02 A3020 RMK SLP229 =
2018-12-16 01:00 METAR CYCX 160100Z AUTO 23006KT 9SM CLR 00/M02 A3019 RMK SLP227 =
2018-12-16 00:00 METAR CYCX 160000Z AUTO 25005KT 9SM CLR 01/M01 A3018 RMK SLP222 =
2018-12-15 23:00 METAR CYCX 152300Z AUTO 27006KT 9SM BKN039 03/M01 A3015 RMK SLP213 =
2018-12-15 22:00 METAR CYCX 152200Z AUTO 26007KT 9SM OVC044 03/M01 A3015 RMK SLP211 =
2018-12-15 21:00 METAR CYCX 152100Z AUTO 28009KT 9SM OVC053 OVC085 04/M01 A3013 RMK SLP206 =
2018-12-15 20:00 METAR CYCX 152000Z AUTO 30010KT 9SM SCT062 SCT098 04/M01 A3010 RMK SLP195 =
2018-12-15 19:00 METAR CYCX 151900Z AUTO 29014G19KT 9SM FEW027 BKN055 BKN066 BKN098 04/M01 A3006
                 RMK SLP180 =
2018-12-15 18:50 METAR CYCX 151850Z AUTO 29011G16KT 9SM FEW027 BKN055 BKN066 BKN098 04/M01 A3005
                 =
2018-12-15 18:00 METAR CYCX 151800Z AUTO 29007KT 9SM BKN022 BKN041 OVC049 04/M00 A3005 RMK SLP176
                 =
2018-12-15 17:19 METAR CYCX 151719Z AUTO 29011KT 250V320 9SM BKN024 OVC039 04/00 A3002 =
2018-12-15 17:00 METAR CYCX 151700Z AUTO 28008G15KT 9SM FEW024 BKN039 04/00 A3002 RMK SLP169 =
2018-12-15 16:55 METAR CYCX 151655Z AUTO 29010G15KT 9SM FEW019 FEW034 BKN039 04/00 A3002 =

Support USWX by starting your Amazon purchase here.